sensor_id;sensor_type;location;lat;lon;timestamp;temperature;humidity
37938;DHT22;23763;48.130;11.602;2023-07-13T00:01:31;19.50;99.90
37938;DHT22;23763;48.130;11.602;2023-07-13T00:03:57;19.60;99.90
37938;DHT22;23763;48.130;11.602;2023-07-13T00:06:23;19.60;99.90
37938;DHT22;23763;48.130;11.602;2023-07-13T00:08:49;19.70;99.90
37938;DHT22;23763;48.130;11.602;2023-07-13T00:11:16;19.80;99.90
37938;DHT22;23763;48.130;11.602;2023-07-13T00:13:42;19.70;99.90
37938;DHT22;23763;48.130;11.602;2023-07-13T00:16:10;19.60;99.90
37938;DHT22;23763;48.130;11.602;2023-07-13T00:18:36;19.50;99.90
37938;DHT22;23763;48.130;11.602;2023-07-13T00:21:03;19.60;99.90
37938;DHT22;23763;48.130;11.602;2023-07-13T00:23:36;19.60;99.90
37938;DHT22;23763;48.130;11.602;2023-07-13T00:26:04;19.60;99.90
37938;DHT22;23763;48.130;11.602;2023-07-13T00:28:30;19.60;99.90
37938;DHT22;23763;48.130;11.602;2023-07-13T00:30:55;19.70;99.90
37938;DHT22;23763;48.130;11.602;2023-07-13T00:33:21;19.80;99.90
37938;DHT22;23763;48.130;11.602;2023-07-13T00:35:48;19.70;99.90
37938;DHT22;23763;48.130;11.602;2023-07-13T00:38:14;19.70;99.90
37938;DHT22;23763;48.130;11.602;2023-07-13T00:40:40;19.70;99.90
37938;DHT22;23763;48.130;11.602;2023-07-13T00:43:18;19.70;99.90
37938;DHT22;23763;48.130;11.602;2023-07-13T00:48:18;19.60;99.90
37938;DHT22;23763;48.130;11.602;2023-07-13T00:50:48;19.60;99.90
37938;DHT22;23763;48.130;11.602;2023-07-13T00:53:15;19.70;99.90
37938;DHT22;23763;48.130;11.602;2023-07-13T00:55:41;19.70;99.90
37938;DHT22;23763;48.130;11.602;2023-07-13T00:58:06;19.70;99.90
37938;DHT22;23763;48.130;11.602;2023-07-13T01:00:35;19.70;99.90
37938;DHT22;23763;48.130;11.602;2023-07-13T01:03:02;19.70;99.90
37938;DHT22;23763;48.130;11.602;2023-07-13T01:05:31;19.70;99.90
37938;DHT22;23763;48.130;11.602;2023-07-13T01:07:58;19.70;99.90
37938;DHT22;23763;48.130;11.602;2023-07-13T01:10:25;19.70;99.90
37938;DHT22;23763;48.130;11.602;2023-07-13T01:12:51;19.80;99.90
37938;DHT22;23763;48.130;11.602;2023-07-13T01:15:37;19.90;99.90
37938;DHT22;23763;48.130;11.602;2023-07-13T01:18:10;19.70;99.90
37938;DHT22;23763;48.130;11.602;2023-07-13T01:20:37;19.70;99.90
37938;DHT22;23763;48.130;11.602;2023-07-13T01:23:08;19.70;99.90
37938;DHT22;23763;48.130;11.602;2023-07-13T01:25:36;19.70;99.90
37938;DHT22;23763;48.130;11.602;2023-07-13T01:28:03;19.70;99.90
37938;DHT22;23763;48.130;11.602;2023-07-13T01:30:28;19.60;99.90
37938;DHT22;23763;48.130;11.602;2023-07-13T01:32:54;19.60;99.90
37938;DHT22;23763;48.130;11.602;2023-07-13T01:35:20;19.60;99.90
37938;DHT22;23763;48.130;11.602;2023-07-13T01:37:45;19.70;99.90
37938;DHT22;23763;48.130;11.602;2023-07-13T01:40:12;19.60;99.90
37938;DHT22;23763;48.130;11.602;2023-07-13T01:42:37;19.60;99.90
37938;DHT22;23763;48.130;11.602;2023-07-13T01:45:04;19.50;99.90
37938;DHT22;23763;48.130;11.602;2023-07-13T01:47:30;19.50;99.90
37938;DHT22;23763;48.130;11.602;2023-07-13T01:49:56;19.60;99.90
37938;DHT22;23763;48.130;11.602;2023-07-13T01:52:22;19.60;99.90
37938;DHT22;23763;48.130;11.602;2023-07-13T01:54:47;19.50;99.90
37938;DHT22;23763;48.130;11.602;2023-07-13T01:57:13;19.50;99.90
37938;DHT22;23763;48.130;11.602;2023-07-13T01:59:39;19.60;99.90
37938;DHT22;23763;48.130;11.602;2023-07-13T02:02:04;19.60;99.90
37938;DHT22;23763;48.130;11.602;2023-07-13T02:04:30;19.60;99.90
37938;DHT22;23763;48.130;11.602;2023-07-13T02:06:55;19.70;99.90
37938;DHT22;23763;48.130;11.602;2023-07-13T02:09:21;19.80;99.90
37938;DHT22;23763;48.130;11.602;2023-07-13T02:11:47;19.80;99.90
37938;DHT22;23763;48.130;11.602;2023-07-13T02:14:14;19.80;99.90
37938;DHT22;23763;48.130;11.602;2023-07-13T02:16:41;19.80;99.90
37938;DHT22;23763;48.130;11.602;2023-07-13T02:19:07;19.70;99.90
37938;DHT22;23763;48.130;11.602;2023-07-13T02:21:33;19.70;99.90
37938;DHT22;23763;48.130;11.602;2023-07-13T02:23:58;19.60;99.90
37938;DHT22;23763;48.130;11.602;2023-07-13T02:26:25;19.60;99.90
37938;DHT22;23763;48.130;11.602;2023-07-13T02:28:51;19.60;99.90
37938;DHT22;23763;48.130;11.602;2023-07-13T02:31:17;19.60;99.90
37938;DHT22;23763;48.130;11.602;2023-07-13T02:33:43;19.60;99.90
37938;DHT22;23763;48.130;11.602;2023-07-13T02:36:09;19.70;99.90
37938;DHT22;23763;48.130;11.602;2023-07-13T02:38:35;19.70;99.90
37938;DHT22;23763;48.130;11.602;2023-07-13T02:41:02;19.70;99.90
37938;DHT22;23763;48.130;11.602;2023-07-13T02:43:27;19.90;99.90
37938;DHT22;23763;48.130;11.602;2023-07-13T02:45:53;19.80;99.90
37938;DHT22;23763;48.130;11.602;2023-07-13T02:48:19;19.90;99.90
37938;DHT22;23763;48.130;11.602;2023-07-13T02:50:45;19.80;99.90
37938;DHT22;23763;48.130;11.602;2023-07-13T02:53:11;19.90;99.90
37938;DHT22;23763;48.130;11.602;2023-07-13T02:55:37;20.00;99.90
37938;DHT22;23763;48.130;11.602;2023-07-13T02:58:02;19.90;99.90
37938;DHT22;23763;48.130;11.602;2023-07-13T03:00:28;19.80;99.90
37938;DHT22;23763;48.130;11.602;2023-07-13T03:02:54;19.60;99.90
37938;DHT22;23763;48.130;11.602;2023-07-13T03:05:22;19.50;99.90
37938;DHT22;23763;48.130;11.602;2023-07-13T03:07:47;19.40;99.90
37938;DHT22;23763;48.130;11.602;2023-07-13T03:10:13;19.20;99.90
37938;DHT22;23763;48.130;11.602;2023-07-13T03:12:39;19.00;99.90
37938;DHT22;23763;48.130;11.602;2023-07-13T03:15:05;19.00;99.90
37938;DHT22;23763;48.130;11.602;2023-07-13T03:17:31;18.80;99.90
37938;DHT22;23763;48.130;11.602;2023-07-13T03:19:56;18.50;99.90
37938;DHT22;23763;48.130;11.602;2023-07-13T03:22:22;18.30;99.90
37938;DHT22;23763;48.130;11.602;2023-07-13T03:24:48;18.20;99.90
37938;DHT22;23763;48.130;11.602;2023-07-13T03:27:14;18.10;99.90
37938;DHT22;23763;48.130;11.602;2023-07-13T03:29:40;18.00;99.90
37938;DHT22;23763;48.130;11.602;2023-07-13T03:32:06;18.00;99.90
37938;DHT22;23763;48.130;11.602;2023-07-13T03:34:31;17.80;99.90
37938;DHT22;23763;48.130;11.602;2023-07-13T03:36:58;17.80;99.90
37938;DHT22;23763;48.130;11.602;2023-07-13T03:39:23;17.60;99.90
37938;DHT22;23763;48.130;11.602;2023-07-13T03:41:49;17.70;99.90
37938;DHT22;23763;48.130;11.602;2023-07-13T03:44:18;17.60;99.90
37938;DHT22;23763;48.130;11.602;2023-07-13T03:46:44;17.50;99.90
37938;DHT22;23763;48.130;11.602;2023-07-13T03:49:11;17.50;99.90
37938;DHT22;23763;48.130;11.602;2023-07-13T03:51:36;17.60;99.90
37938;DHT22;23763;48.130;11.602;2023-07-13T03:54:02;17.60;99.90
37938;DHT22;23763;48.130;11.602;2023-07-13T03:56:28;17.70;99.90
37938;DHT22;23763;48.130;11.602;2023-07-13T03:58:55;17.80;99.90
37938;DHT22;23763;48.130;11.602;2023-07-13T04:01:22;17.80;99.90
37938;DHT22;23763;48.130;11.602;2023-07-13T04:03:49;17.80;99.90
37938;DHT22;23763;48.130;11.602;2023-07-13T04:06:21;17.90;99.90
37938;DHT22;23763;48.130;11.602;2023-07-13T04:08:49;18.00;99.90
37938;DHT22;23763;48.130;11.602;2023-07-13T04:11:16;18.10;99.90
37938;DHT22;23763;48.130;11.602;2023-07-13T04:13:41;18.10;99.90
37938;DHT22;23763;48.130;11.602;2023-07-13T04:16:07;18.10;99.90
37938;DHT22;23763;48.130;11.602;2023-07-13T04:18:32;18.20;99.90
37938;DHT22;23763;48.130;11.602;2023-07-13T04:20:58;18.10;99.90
37938;DHT22;23763;48.130;11.602;2023-07-13T04:23:24;18.10;99.90
37938;DHT22;23763;48.130;11.602;2023-07-13T04:25:52;18.10;99.90
37938;DHT22;23763;48.130;11.602;2023-07-13T04:28:19;18.00;99.90
37938;DHT22;23763;48.130;11.602;2023-07-13T04:30:45;18.00;99.90
37938;DHT22;23763;48.130;11.602;2023-07-13T04:33:11;18.00;99.90
37938;DHT22;23763;48.130;11.602;2023-07-13T04:35:36;18.00;99.90
37938;DHT22;23763;48.130;11.602;2023-07-13T04:38:02;18.00;99.90
37938;DHT22;23763;48.130;11.602;2023-07-13T04:40:29;18.00;99.90
37938;DHT22;23763;48.130;11.602;2023-07-13T04:42:55;18.10;99.90
37938;DHT22;23763;48.130;11.602;2023-07-13T04:45:21;18.10;99.90
37938;DHT22;23763;48.130;11.602;2023-07-13T04:47:49;18.20;99.90
37938;DHT22;23763;48.130;11.602;2023-07-13T04:50:15;18.30;99.90
37938;DHT22;23763;48.130;11.602;2023-07-13T04:52:45;18.30;99.90
37938;DHT22;23763;48.130;11.602;2023-07-13T04:55:10;18.40;99.90
37938;DHT22;23763;48.130;11.602;2023-07-13T04:57:36;18.50;99.90
37938;DHT22;23763;48.130;11.602;2023-07-13T05:00:03;18.60;99.90
37938;DHT22;23763;48.130;11.602;2023-07-13T05:02:31;18.60;99.90
37938;DHT22;23763;48.130;11.602;2023-07-13T05:04:58;18.70;99.90
37938;DHT22;23763;48.130;11.602;2023-07-13T05:07:25;18.70;99.90
37938;DHT22;23763;48.130;11.602;2023-07-13T05:09:51;18.80;99.90
37938;DHT22;23763;48.130;11.602;2023-07-13T05:12:17;18.80;99.90
37938;DHT22;23763;48.130;11.602;2023-07-13T05:14:43;18.80;99.90
37938;DHT22;23763;48.130;11.602;2023-07-13T05:17:08;18.80;99.90
37938;DHT22;23763;48.130;11.602;2023-07-13T05:19:34;18.80;99.90
37938;DHT22;23763;48.130;11.602;2023-07-13T05:22:00;18.80;99.90
37938;DHT22;23763;48.130;11.602;2023-07-13T05:24:26;18.80;99.90
37938;DHT22;23763;48.130;11.602;2023-07-13T05:26:52;18.80;99.90
37938;DHT22;23763;48.130;11.602;2023-07-13T05:29:19;18.80;99.90
37938;DHT22;23763;48.130;11.602;2023-07-13T05:31:44;18.80;99.90
37938;DHT22;23763;48.130;11.602;2023-07-13T05:34:10;18.80;99.90
37938;DHT22;23763;48.130;11.602;2023-07-13T05:36:35;18.70;99.90
37938;DHT22;23763;48.130;11.602;2023-07-13T05:39:03;18.60;99.90
37938;DHT22;23763;48.130;11.602;2023-07-13T05:41:29;18.60;99.90
37938;DHT22;23763;48.130;11.602;2023-07-13T05:43:54;18.60;99.90
37938;DHT22;23763;48.130;11.602;2023-07-13T05:46:20;18.70;99.90
37938;DHT22;23763;48.130;11.602;2023-07-13T05:48:45;18.70;99.90
37938;DHT22;23763;48.130;11.602;2023-07-13T05:51:11;18.80;99.90
37938;DHT22;23763;48.130;11.602;2023-07-13T05:53:37;18.80;99.90
37938;DHT22;23763;48.130;11.602;2023-07-13T05:56:05;18.90;99.90
37938;DHT22;23763;48.130;11.602;2023-07-13T05:58:31;18.90;99.90
37938;DHT22;23763;48.130;11.602;2023-07-13T06:01:05;19.10;99.90
37938;DHT22;23763;48.130;11.602;2023-07-13T06:03:32;19.30;99.90
37938;DHT22;23763;48.130;11.602;2023-07-13T06:05:58;19.40;99.90
37938;DHT22;23763;48.130;11.602;2023-07-13T06:08:26;19.60;99.90
37938;DHT22;23763;48.130;11.602;2023-07-13T06:10:51;19.70;99.90
37938;DHT22;23763;48.130;11.602;2023-07-13T06:13:17;19.80;99.90
37938;DHT22;23763;48.130;11.602;2023-07-13T06:15:50;19.70;99.90
37938;DHT22;23763;48.130;11.602;2023-07-13T06:18:16;19.80;99.90
37938;DHT22;23763;48.130;11.602;2023-07-13T06:20:42;20.00;99.90
37938;DHT22;23763;48.130;11.602;2023-07-13T06:23:07;20.10;99.90
37938;DHT22;23763;48.130;11.602;2023-07-13T06:25:33;20.10;99.90
37938;DHT22;23763;48.130;11.602;2023-07-13T06:27:58;20.40;99.90
37938;DHT22;23763;48.130;11.602;2023-07-13T06:30:24;20.80;99.90
37938;DHT22;23763;48.130;11.602;2023-07-13T06:32:50;21.10;99.90
37938;DHT22;23763;48.130;11.602;2023-07-13T06:35:15;21.20;99.90
37938;DHT22;23763;48.130;11.602;2023-07-13T06:37:41;21.30;99.90
37938;DHT22;23763;48.130;11.602;2023-07-13T06:40:07;21.60;99.90
37938;DHT22;23763;48.130;11.602;2023-07-13T06:42:33;21.80;99.90
37938;DHT22;23763;48.130;11.602;2023-07-13T06:44:58;21.90;99.90
37938;DHT22;23763;48.130;11.602;2023-07-13T06:47:24;21.80;99.90
37938;DHT22;23763;48.130;11.602;2023-07-13T06:49:49;21.30;99.90
37938;DHT22;23763;48.130;11.602;2023-07-13T06:52:15;21.10;99.90
37938;DHT22;23763;48.130;11.602;2023-07-13T06:54:41;21.00;99.90
37938;DHT22;23763;48.130;11.602;2023-07-13T06:57:06;20.90;99.90
37938;DHT22;23763;48.130;11.602;2023-07-13T06:59:32;20.90;99.90
37938;DHT22;23763;48.130;11.602;2023-07-13T07:01:58;20.90;99.90
37938;DHT22;23763;48.130;11.602;2023-07-13T07:04:23;21.10;99.90
37938;DHT22;23763;48.130;11.602;2023-07-13T07:06:49;21.20;99.90
37938;DHT22;23763;48.130;11.602;2023-07-13T07:09:15;21.30;99.90
37938;DHT22;23763;48.130;11.602;2023-07-13T07:11:42;21.50;99.90
37938;DHT22;23763;48.130;11.602;2023-07-13T07:14:08;21.60;99.90
37938;DHT22;23763;48.130;11.602;2023-07-13T07:16:33;21.80;99.90
37938;DHT22;23763;48.130;11.602;2023-07-13T07:18:59;22.40;99.90
37938;DHT22;23763;48.130;11.602;2023-07-13T07:21:24;22.70;99.90
37938;DHT22;23763;48.130;11.602;2023-07-13T07:23:51;22.50;99.90
37938;DHT22;23763;48.130;11.602;2023-07-13T07:26:17;22.30;99.90
37938;DHT22;23763;48.130;11.602;2023-07-13T07:28:43;22.10;99.90
37938;DHT22;23763;48.130;11.602;2023-07-13T07:31:09;21.90;99.90
37938;DHT22;23763;48.130;11.602;2023-07-13T07:33:34;21.80;99.90
37938;DHT22;23763;48.130;11.602;2023-07-13T07:36:01;21.80;99.90
37938;DHT22;23763;48.130;11.602;2023-07-13T07:38:26;21.60;99.90
37938;DHT22;23763;48.130;11.602;2023-07-13T07:40:52;21.50;99.90
37938;DHT22;23763;48.130;11.602;2023-07-13T07:43:18;21.50;99.90
37938;DHT22;23763;48.130;11.602;2023-07-13T07:45:44;21.70;99.90
37938;DHT22;23763;48.130;11.602;2023-07-13T07:48:11;21.40;99.90
37938;DHT22;23763;48.130;11.602;2023-07-13T07:50:36;21.40;99.90
37938;DHT22;23763;48.130;11.602;2023-07-13T07:53:02;21.40;99.90
37938;DHT22;23763;48.130;11.602;2023-07-13T07:55:28;21.40;99.90
37938;DHT22;23763;48.130;11.602;2023-07-13T07:57:56;21.40;99.90
37938;DHT22;23763;48.130;11.602;2023-07-13T08:00:22;21.30;99.90
37938;DHT22;23763;48.130;11.602;2023-07-13T08:02:47;21.20;99.90
37938;DHT22;23763;48.130;11.602;2023-07-13T08:05:13;21.20;99.90
37938;DHT22;23763;48.130;11.602;2023-07-13T08:07:39;21.00;99.90
37938;DHT22;23763;48.130;11.602;2023-07-13T08:10:06;21.00;99.90
37938;DHT22;23763;48.130;11.602;2023-07-13T08:12:37;20.90;99.90
37938;DHT22;23763;48.130;11.602;2023-07-13T08:15:04;20.80;99.90
37938;DHT22;23763;48.130;11.602;2023-07-13T08:17:30;20.80;99.90
37938;DHT22;23763;48.130;11.602;2023-07-13T08:19:55;20.70;99.90
37938;DHT22;23763;48.130;11.602;2023-07-13T08:22:21;20.60;99.90
37938;DHT22;23763;48.130;11.602;2023-07-13T08:24:46;20.60;99.90
37938;DHT22;23763;48.130;11.602;2023-07-13T08:27:20;20.50;99.90
37938;DHT22;23763;48.130;11.602;2023-07-13T08:29:47;20.30;99.90
37938;DHT22;23763;48.130;11.602;2023-07-13T08:32:13;20.30;99.90
37938;DHT22;23763;48.130;11.602;2023-07-13T08:34:39;20.30;99.90
37938;DHT22;23763;48.130;11.602;2023-07-13T08:37:05;20.30;99.90
37938;DHT22;23763;48.130;11.602;2023-07-13T08:39:31;20.20;99.90
37938;DHT22;23763;48.130;11.602;2023-07-13T08:42:05;20.30;99.90
37938;DHT22;23763;48.130;11.602;2023-07-13T08:45:02;20.40;99.90
37938;DHT22;23763;48.130;11.602;2023-07-13T08:47:30;20.40;99.90
37938;DHT22;23763;48.130;11.602;2023-07-13T08:49:57;20.40;99.90
37938;DHT22;23763;48.130;11.602;2023-07-13T08:52:36;20.50;99.90
37938;DHT22;23763;48.130;11.602;2023-07-13T08:55:12;20.40;99.90
37938;DHT22;23763;48.130;11.602;2023-07-13T08:57:41;20.60;99.90
37938;DHT22;23763;48.130;11.602;2023-07-13T09:00:11;20.80;99.90
37938;DHT22;23763;48.130;11.602;2023-07-13T09:02:56;20.90;99.90
37938;DHT22;23763;48.130;11.602;2023-07-13T09:05:38;21.00;99.90
37938;DHT22;23763;48.130;11.602;2023-07-13T09:14:33;21.00;99.90
37938;DHT22;23763;48.130;11.602;2023-07-13T09:17:35;21.00;99.90
37938;DHT22;23763;48.130;11.602;2023-07-13T09:20:10;20.90;99.90
37938;DHT22;23763;48.130;11.602;2023-07-13T09:22:42;21.10;99.90
37938;DHT22;23763;48.130;11.602;2023-07-13T09:27:53;21.40;99.90
37938;DHT22;23763;48.130;11.602;2023-07-13T09:33:24;21.70;99.90
37938;DHT22;23763;48.130;11.602;2023-07-13T09:35:50;21.80;99.90
37938;DHT22;23763;48.130;11.602;2023-07-13T09:38:18;21.80;99.90
37938;DHT22;23763;48.130;11.602;2023-07-13T09:43:20;21.60;99.90
37938;DHT22;23763;48.130;11.602;2023-07-13T09:45:47;21.60;99.90
37938;DHT22;23763;48.130;11.602;2023-07-13T09:48:15;21.60;99.90
37938;DHT22;23763;48.130;11.602;2023-07-13T09:50:42;21.70;99.90
37938;DHT22;23763;48.130;11.602;2023-07-13T09:53:15;21.80;99.90
37938;DHT22;23763;48.130;11.602;2023-07-13T09:55:44;21.80;99.90
37938;DHT22;23763;48.130;11.602;2023-07-13T09:58:16;22.10;99.90
37938;DHT22;23763;48.130;11.602;2023-07-13T10:00:44;22.30;99.90
37938;DHT22;23763;48.130;11.602;2023-07-13T10:03:19;22.60;99.70
37938;DHT22;23763;48.130;11.602;2023-07-13T10:05:46;22.90;98.10
37938;DHT22;23763;48.130;11.602;2023-07-13T10:08:18;23.20;97.10
37938;DHT22;23763;48.130;11.602;2023-07-13T10:10:44;23.50;95.90
37938;DHT22;23763;48.130;11.602;2023-07-13T10:13:37;23.70;95.60
37938;DHT22;23763;48.130;11.602;2023-07-13T10:16:06;24.00;95.00
37938;DHT22;23763;48.130;11.602;2023-07-13T10:18:45;24.30;95.60
37938;DHT22;23763;48.130;11.602;2023-07-13T10:21:15;24.60;94.90
37938;DHT22;23763;48.130;11.602;2023-07-13T10:23:42;24.90;90.90
37938;DHT22;23763;48.130;11.602;2023-07-13T10:26:13;24.90;90.30
37938;DHT22;23763;48.130;11.602;2023-07-13T10:28:41;25.30;91.30
37938;DHT22;23763;48.130;11.602;2023-07-13T10:31:13;25.30;86.90
37938;DHT22;23763;48.130;11.602;2023-07-13T10:33:39;25.40;86.20
37938;DHT22;23763;48.130;11.602;2023-07-13T10:38:38;25.60;87.90
37938;DHT22;23763;48.130;11.602;2023-07-13T10:41:14;25.90;88.00
37938;DHT22;23763;48.130;11.602;2023-07-13T10:43:46;26.20;88.70
37938;DHT22;23763;48.130;11.602;2023-07-13T10:46:17;26.20;87.20
37938;DHT22;23763;48.130;11.602;2023-07-13T10:48:45;26.30;85.60
37938;DHT22;23763;48.130;11.602;2023-07-13T10:51:14;26.00;84.70
37938;DHT22;23763;48.130;11.602;2023-07-13T10:53:40;26.10;84.10
37938;DHT22;23763;48.130;11.602;2023-07-13T10:56:28;26.20;84.10
37938;DHT22;23763;48.130;11.602;2023-07-13T10:59:10;26.10;84.90
37938;DHT22;23763;48.130;11.602;2023-07-13T11:01:54;26.00;85.30
37938;DHT22;23763;48.130;11.602;2023-07-13T11:04:21;26.00;87.10
37938;DHT22;23763;48.130;11.602;2023-07-13T11:06:52;26.10;84.90
37938;DHT22;23763;48.130;11.602;2023-07-13T11:09:38;25.40;87.00
37938;DHT22;23763;48.130;11.602;2023-07-13T11:15:11;25.40;90.00
37938;DHT22;23763;48.130;11.602;2023-07-13T11:17:48;25.30;89.70
37938;DHT22;23763;48.130;11.602;2023-07-13T11:25:29;25.60;89.20
37938;DHT22;23763;48.130;11.602;2023-07-13T11:30:46;26.10;87.10
37938;DHT22;23763;48.130;11.602;2023-07-13T11:33:19;25.60;89.50
37938;DHT22;23763;48.130;11.602;2023-07-13T11:39:03;25.70;87.80
37938;DHT22;23763;48.130;11.602;2023-07-13T11:41:37;25.50;87.80
37938;DHT22;23763;48.130;11.602;2023-07-13T11:44:13;25.40;88.30
37938;DHT22;23763;48.130;11.602;2023-07-13T11:46:44;25.10;90.10
37938;DHT22;23763;48.130;11.602;2023-07-13T11:49:15;24.70;89.30
37938;DHT22;23763;48.130;11.602;2023-07-13T11:51:41;24.20;91.50
37938;DHT22;23763;48.130;11.602;2023-07-13T11:54:21;24.00;91.40
37938;DHT22;23763;48.130;11.602;2023-07-13T11:56:48;24.00;90.00
37938;DHT22;23763;48.130;11.602;2023-07-13T11:59:15;24.20;88.30
37938;DHT22;23763;48.130;11.602;2023-07-13T12:01:47;24.30;90.00
37938;DHT22;23763;48.130;11.602;2023-07-13T12:04:27;24.40;90.30
37938;DHT22;23763;48.130;11.602;2023-07-13T12:07:16;24.20;89.40
37938;DHT22;23763;48.130;11.602;2023-07-13T12:09:42;24.30;89.40
37938;DHT22;23763;48.130;11.602;2023-07-13T12:12:15;24.20;88.50
37938;DHT22;23763;48.130;11.602;2023-07-13T12:14:42;24.00;87.10
37938;DHT22;23763;48.130;11.602;2023-07-13T12:17:25;24.30;87.20
37938;DHT22;23763;48.130;11.602;2023-07-13T12:19:53;24.70;88.60
37938;DHT22;23763;48.130;11.602;2023-07-13T12:22:19;25.00;88.90
37938;DHT22;23763;48.130;11.602;2023-07-13T12:24:46;25.20;88.30
37938;DHT22;23763;48.130;11.602;2023-07-13T12:27:25;25.40;89.00
37938;DHT22;23763;48.130;11.602;2023-07-13T12:29:58;25.60;88.40
37938;DHT22;23763;48.130;11.602;2023-07-13T12:32:25;25.80;86.40
37938;DHT22;23763;48.130;11.602;2023-07-13T12:34:57;25.60;86.30
37938;DHT22;23763;48.130;11.602;2023-07-13T12:37:23;25.70;86.30
37938;DHT22;23763;48.130;11.602;2023-07-13T12:39:49;25.90;86.30
37938;DHT22;23763;48.130;11.602;2023-07-13T12:42:27;26.10;86.80
37938;DHT22;23763;48.130;11.602;2023-07-13T12:45:19;26.10;87.30
37938;DHT22;23763;48.130;11.602;2023-07-13T12:47:50;26.00;89.00
37938;DHT22;23763;48.130;11.602;2023-07-13T12:50:21;26.00;87.20
37938;DHT22;23763;48.130;11.602;2023-07-13T12:52:56;26.00;88.30
37938;DHT22;23763;48.130;11.602;2023-07-13T12:55:23;25.90;87.90
37938;DHT22;23763;48.130;11.602;2023-07-13T12:57:55;25.90;88.10
37938;DHT22;23763;48.130;11.602;2023-07-13T13:00:36;25.60;87.70
37938;DHT22;23763;48.130;11.602;2023-07-13T13:03:16;25.90;89.40
37938;DHT22;23763;48.130;11.602;2023-07-13T13:05:44;25.90;87.30
37938;DHT22;23763;48.130;11.602;2023-07-13T13:08:14;25.90;87.80
37938;DHT22;23763;48.130;11.602;2023-07-13T13:10:39;25.90;88.40
37938;DHT22;23763;48.130;11.602;2023-07-13T13:13:05;25.80;87.80
37938;DHT22;23763;48.130;11.602;2023-07-13T13:15:30;25.60;87.80
37938;DHT22;23763;48.130;11.602;2023-07-13T13:17:56;25.20;88.50
37938;DHT22;23763;48.130;11.602;2023-07-13T13:20:24;25.30;89.60
37938;DHT22;23763;48.130;11.602;2023-07-13T13:22:51;25.20;87.20
37938;DHT22;23763;48.130;11.602;2023-07-13T13:25:17;25.00;89.40
37938;DHT22;23763;48.130;11.602;2023-07-13T13:27:43;25.10;90.20
37938;DHT22;23763;48.130;11.602;2023-07-13T13:30:14;25.40;87.30
37938;DHT22;23763;48.130;11.602;2023-07-13T13:32:41;25.40;88.00
37938;DHT22;23763;48.130;11.602;2023-07-13T13:35:15;25.40;87.50
37938;DHT22;23763;48.130;11.602;2023-07-13T13:37:41;25.00;87.20
37938;DHT22;23763;48.130;11.602;2023-07-13T13:40:33;25.20;87.00
37938;DHT22;23763;48.130;11.602;2023-07-13T13:42:59;25.30;86.70
37938;DHT22;23763;48.130;11.602;2023-07-13T13:45:24;25.50;87.00
37938;DHT22;23763;48.130;11.602;2023-07-13T13:47:50;25.80;85.50
37938;DHT22;23763;48.130;11.602;2023-07-13T13:50:19;25.70;84.90
37938;DHT22;23763;48.130;11.602;2023-07-13T13:52:45;25.60;84.90
37938;DHT22;23763;48.130;11.602;2023-07-13T13:55:16;25.80;85.00
37938;DHT22;23763;48.130;11.602;2023-07-13T13:57:43;25.90;83.90
37938;DHT22;23763;48.130;11.602;2023-07-13T14:00:10;25.90;84.40
37938;DHT22;23763;48.130;11.602;2023-07-13T14:02:41;25.70;84.40
37938;DHT22;23763;48.130;11.602;2023-07-13T14:05:12;25.90;84.40
37938;DHT22;23763;48.130;11.602;2023-07-13T14:07:38;25.90;84.60
37938;DHT22;23763;48.130;11.602;2023-07-13T14:10:16;26.00;83.80
37938;DHT22;23763;48.130;11.602;2023-07-13T14:12:43;26.10;83.80
37938;DHT22;23763;48.130;11.602;2023-07-13T14:15:18;25.90;84.20
37938;DHT22;23763;48.130;11.602;2023-07-13T14:17:45;25.80;85.10
37938;DHT22;23763;48.130;11.602;2023-07-13T14:20:12;25.80;85.40
37938;DHT22;23763;48.130;11.602;2023-07-13T14:22:39;25.70;84.40
37938;DHT22;23763;48.130;11.602;2023-07-13T14:25:05;25.70;84.70
37938;DHT22;23763;48.130;11.602;2023-07-13T14:27:31;25.80;85.20
37938;DHT22;23763;48.130;11.602;2023-07-13T14:29:56;25.90;83.50
37938;DHT22;23763;48.130;11.602;2023-07-13T14:32:22;26.10;84.90
37938;DHT22;23763;48.130;11.602;2023-07-13T14:34:47;26.00;84.50
37938;DHT22;23763;48.130;11.602;2023-07-13T14:37:14;25.80;84.10
37938;DHT22;23763;48.130;11.602;2023-07-13T14:39:43;25.50;84.20
37938;DHT22;23763;48.130;11.602;2023-07-13T14:42:09;25.00;84.70
37938;DHT22;23763;48.130;11.602;2023-07-13T14:44:35;25.00;85.20
37938;DHT22;23763;48.130;11.602;2023-07-13T14:47:03;25.30;84.30
37938;DHT22;23763;48.130;11.602;2023-07-13T14:49:35;25.40;84.20
37938;DHT22;23763;48.130;11.602;2023-07-13T14:52:24;25.40;83.60
37938;DHT22;23763;48.130;11.602;2023-07-13T14:54:50;25.50;84.40
37938;DHT22;23763;48.130;11.602;2023-07-13T14:57:19;25.50;84.00
37938;DHT22;23763;48.130;11.602;2023-07-13T14:59:46;25.40;84.60
37938;DHT22;23763;48.130;11.602;2023-07-13T15:02:34;25.30;84.70
37938;DHT22;23763;48.130;11.602;2023-07-13T15:05:12;25.20;83.90
37938;DHT22;23763;48.130;11.602;2023-07-13T15:07:38;25.00;85.30
37938;DHT22;23763;48.130;11.602;2023-07-13T15:12:46;25.10;84.60
37938;DHT22;23763;48.130;11.602;2023-07-13T15:15:13;25.10;86.00
37938;DHT22;23763;48.130;11.602;2023-07-13T15:17:44;25.10;84.60
37938;DHT22;23763;48.130;11.602;2023-07-13T15:20:26;25.20;85.10
37938;DHT22;23763;48.130;11.602;2023-07-13T15:22:53;25.20;84.40
37938;DHT22;23763;48.130;11.602;2023-07-13T15:25:21;25.00;84.50
37938;DHT22;23763;48.130;11.602;2023-07-13T15:27:47;25.00;85.60
37938;DHT22;23763;48.130;11.602;2023-07-13T15:30:13;25.10;85.10
37938;DHT22;23763;48.130;11.602;2023-07-13T15:32:41;25.10;85.20
37938;DHT22;23763;48.130;11.602;2023-07-13T15:35:18;24.90;85.60
37938;DHT22;23763;48.130;11.602;2023-07-13T15:37:44;25.10;84.80
37938;DHT22;23763;48.130;11.602;2023-07-13T15:40:11;25.10;84.50
37938;DHT22;23763;48.130;11.602;2023-07-13T15:42:39;25.10;84.50
37938;DHT22;23763;48.130;11.602;2023-07-13T15:45:19;25.20;84.90
37938;DHT22;23763;48.130;11.602;2023-07-13T15:47:46;25.20;83.70
37938;DHT22;23763;48.130;11.602;2023-07-13T15:50:20;25.10;84.50
37938;DHT22;23763;48.130;11.602;2023-07-13T15:52:49;25.10;84.00
37938;DHT22;23763;48.130;11.602;2023-07-13T15:55:15;25.10;84.50
37938;DHT22;23763;48.130;11.602;2023-07-13T15:57:44;25.20;84.70
37938;DHT22;23763;48.130;11.602;2023-07-13T16:02:46;25.20;84.00